createdAt,value
2022-12-23T00:01:47.971Z,17.87
2022-12-23T00:04:17.517Z,16.50
2022-12-23T00:06:49.942Z,17.47
2022-12-23T00:09:22.121Z,17.70
2022-12-23T00:12:06.141Z,18.17
2022-12-23T00:14:53.636Z,17.67
2022-12-23T00:17:23.459Z,17.63
2022-12-23T00:19:52.835Z,18.10
2022-12-23T00:22:45.218Z,19.93
2022-12-23T00:25:16.955Z,20.50
2022-12-23T00:28:00.868Z,20.53
2022-12-23T00:30:31.089Z,19.60
2022-12-23T00:33:04.139Z,20.43
2022-12-23T00:35:33.467Z,20.93
2022-12-23T00:38:02.747Z,20.27
2022-12-23T00:40:52.920Z,21.80
2022-12-23T00:43:32.156Z,21.00
2022-12-23T00:46:01.465Z,21.33
2022-12-23T00:48:50.054Z,21.10
2022-12-23T00:51:19.302Z,21.73
2022-12-23T00:53:48.236Z,20.93
2022-12-23T00:56:19.937Z,23.73
2022-12-23T00:58:51.743Z,22.00
2022-12-23T01:01:39.009Z,22.30
2022-12-23T01:04:30.934Z,22.03
2022-12-23T01:07:00.623Z,21.73
2022-12-23T01:09:35.247Z,23.30
2022-12-23T01:12:06.990Z,22.90
2022-12-23T01:14:37.433Z,24.20
2022-12-23T01:17:08.968Z,24.97
2022-12-23T01:19:40.099Z,22.67
2022-12-23T01:22:09.447Z,23.23
2022-12-23T01:24:42.935Z,21.90
2022-12-23T01:27:12.150Z,23.47
2022-12-23T01:29:41.660Z,25.10
2022-12-23T01:32:10.817Z,25.00
2022-12-23T01:34:40.429Z,24.45
2022-12-23T01:37:10.716Z,23.70
2022-12-23T01:39:43.929Z,24.10
2022-12-23T01:42:30.511Z,25.77
2022-12-23T01:45:02.761Z,22.97
2022-12-23T01:47:39.024Z,24.83
2022-12-23T01:50:17.119Z,25.73
2022-12-23T01:52:58.458Z,25.20
2022-12-23T01:55:36.804Z,25.57
2022-12-23T01:58:19.592Z,24.50
2022-12-23T02:01:08.693Z,23.83
2022-12-23T02:03:51.274Z,23.07
2022-12-23T02:06:42.322Z,24.27
2022-12-23T02:09:19.195Z,23.60
2022-12-23T02:12:29.479Z,23.43
2022-12-23T02:15:35.038Z,24.83
2022-12-23T02:18:19.464Z,23.93
2022-12-23T02:21:28.209Z,23.90
2022-12-23T02:24:29.766Z,22.17
2022-12-23T02:27:12.428Z,22.33
2022-12-23T02:30:28.407Z,21.83
2022-12-23T02:33:30.724Z,21.27
2022-12-23T02:36:14.679Z,21.37
2022-12-23T02:39:01.757Z,20.07
2022-12-23T02:41:44.103Z,21.97
2022-12-23T02:44:24.974Z,21.33
2022-12-23T02:47:10.971Z,22.10
2022-12-23T02:49:52.981Z,21.40
2022-12-23T02:52:30.675Z,22.17
2022-12-23T02:55:10.842Z,20.83
2022-12-23T02:57:47.336Z,20.83
2022-12-23T03:00:18.119Z,20.77
2022-12-23T03:02:49.075Z,21.07
2022-12-23T03:05:29.841Z,21.85
2022-12-23T03:08:03.159Z,22.13
2022-12-23T03:10:47.804Z,20.95
2022-12-23T03:13:39.905Z,20.73
2022-12-23T03:16:24.783Z,21.57
2022-12-23T03:19:10.874Z,21.73
2022-12-23T03:21:49.596Z,21.50
2022-12-23T03:24:26.210Z,20.97
2022-12-23T03:27:14.845Z,19.10
2022-12-23T03:29:54.695Z,22.27
2022-12-23T03:32:28.624Z,20.70
2022-12-23T03:35:08.562Z,21.17
2022-12-23T03:37:46.586Z,20.93
2022-12-23T03:40:21.279Z,20.73
2022-12-23T03:42:57.676Z,21.23
2022-12-23T03:45:41.372Z,21.63
2022-12-23T03:48:22.596Z,21.53
2022-12-23T03:51:00.200Z,23.40
2022-12-23T03:53:34.023Z,22.67
2022-12-23T03:58:43.988Z,24.00
2022-12-23T04:01:24.223Z,23.33
2022-12-23T04:04:03.118Z,23.93
2022-12-23T04:06:44.220Z,21.80
2022-12-23T04:09:22.325Z,22.23
2022-12-23T04:11:53.345Z,21.47
2022-12-23T04:14:35.095Z,21.63
2022-12-23T04:17:04.273Z,21.73
2022-12-23T04:19:33.813Z,22.70
2022-12-23T04:22:04.578Z,24.93
2022-12-23T04:24:34.789Z,22.60
2022-12-23T04:27:05.523Z,23.43
2022-12-23T04:29:38.134Z,23.20
2022-12-23T04:32:08.670Z,21.07
2022-12-23T04:34:41.820Z,21.30
2022-12-23T04:37:12.101Z,20.20
2022-12-23T04:39:41.615Z,19.80
2022-12-23T04:42:11.108Z,19.63
2022-12-23T04:44:43.191Z,20.47
2022-12-23T04:47:14.587Z,20.43
2022-12-23T04:49:49.081Z,20.13
2022-12-23T04:52:23.239Z,19.33
2022-12-23T04:54:53.013Z,18.67
2022-12-23T04:57:25.942Z,19.57
2022-12-23T04:59:59.696Z,19.63
2022-12-23T05:02:37.873Z,19.67
2022-12-23T05:05:08.992Z,18.83
2022-12-23T05:07:43.352Z,18.07
2022-12-23T05:10:13.919Z,18.00
2022-12-23T05:12:44.482Z,16.60
2022-12-23T05:15:14.169Z,18.57
2022-12-23T05:17:44.624Z,18.40
2022-12-23T05:20:16.286Z,17.50
2022-12-23T05:22:55.110Z,16.60
2022-12-23T05:25:30.199Z,16.90
2022-12-23T05:28:02.133Z,16.40
2022-12-23T05:30:33.257Z,16.87
2022-12-23T05:33:11.978Z,17.27
2022-12-23T05:35:51.185Z,17.67
2022-12-23T05:38:21.171Z,16.67
2022-12-23T05:40:52.921Z,17.77
2022-12-23T05:43:23.178Z,16.03
2022-12-23T05:45:56.833Z,17.63
2022-12-23T05:48:26.089Z,18.27
2022-12-23T05:50:58.837Z,18.73
2022-12-23T05:53:31.028Z,19.87
2022-12-23T05:56:10.068Z,18.47
2022-12-23T05:58:42.723Z,19.07
2022-12-23T06:01:13.813Z,18.33
2022-12-23T06:03:44.816Z,19.13
2022-12-23T06:06:20.543Z,20.33
2022-12-23T06:08:55.747Z,24.20
2022-12-23T06:11:30.321Z,23.43
2022-12-23T06:14:00.365Z,23.93
2022-12-23T06:16:33.863Z,23.03
2022-12-23T06:19:10.925Z,20.80
2022-12-23T06:21:44.617Z,22.93
2022-12-23T06:24:15.982Z,55.98
2022-12-23T06:26:53.314Z,32.15
2022-12-23T06:29:31.770Z,27.50
2022-12-23T06:32:01.313Z,30.17
2022-12-23T06:34:34.418Z,32.73
2022-12-23T06:37:07.061Z,32.83
2022-12-23T06:39:37.042Z,54.03
2022-12-23T06:42:07.241Z,28.30
2022-12-23T06:44:36.900Z,24.40
2022-12-23T06:47:06.403Z,26.33
2022-12-23T06:49:35.947Z,28.37
2022-12-23T06:52:07.710Z,37.00
2022-12-23T06:54:37.400Z,97.40
2022-12-23T06:57:10.304Z,51.67
2022-12-23T06:59:39.664Z,27.10
2022-12-23T07:02:12.091Z,25.67
2022-12-23T07:04:49.319Z,24.53
2022-12-23T07:07:23.033Z,24.40
2022-12-23T07:09:52.231Z,23.10
2022-12-23T07:12:21.947Z,24.07
2022-12-23T07:14:51.073Z,26.20
2022-12-23T07:17:20.447Z,26.90
2022-12-23T07:19:49.633Z,25.13
2022-12-23T07:22:18.943Z,24.97
2022-12-23T07:24:48.049Z,25.63
2022-12-23T07:27:17.411Z,24.87
2022-12-23T07:29:46.769Z,25.50
2022-12-23T07:32:16.145Z,22.80
2022-12-23T07:34:46.472Z,25.03
2022-12-23T07:37:15.922Z,22.40
2022-12-23T07:39:50.899Z,22.83
2022-12-23T07:42:44.023Z,22.97
2022-12-23T07:45:14.687Z,21.77
2022-12-23T07:47:46.458Z,22.53
2022-12-23T07:50:16.776Z,22.50
2022-12-23T07:52:46.133Z,23.87
2022-12-23T07:55:20.519Z,23.83
2022-12-23T07:57:52.993Z,23.93
2022-12-23T08:00:25.102Z,22.90
2022-12-23T08:02:54.768Z,34.43
2022-12-23T08:05:31.833Z,28.87
2022-12-23T08:08:05.262Z,26.60
2022-12-23T08:10:41.508Z,25.90
2022-12-23T08:13:16.546Z,24.63
2022-12-23T08:15:51.988Z,22.87
2022-12-23T08:18:21.792Z,23.17
2022-12-23T08:20:57.081Z,23.13
2022-12-23T08:23:30.242Z,23.53
2022-12-23T08:26:05.814Z,22.77
2022-12-23T08:28:36.405Z,23.93
2022-12-23T08:31:08.149Z,23.27
2022-12-23T08:33:39.494Z,22.83
2022-12-23T08:36:20.818Z,22.40
2022-12-23T08:38:53.896Z,22.53
2022-12-23T08:41:42.028Z,23.27
2022-12-23T08:44:16.359Z,20.75
2022-12-23T08:49:20.405Z,20.03
2022-12-23T08:51:52.818Z,21.20
2022-12-23T08:54:23.537Z,22.20
2022-12-23T08:56:53.195Z,22.20
2022-12-23T08:59:22.597Z,23.07
2022-12-23T09:01:56.305Z,21.23
2022-12-23T09:04:28.181Z,20.77
2022-12-23T09:07:02.372Z,20.00
2022-12-23T09:09:33.970Z,21.90
2022-12-23T09:12:04.887Z,21.90
2022-12-23T09:14:37.154Z,21.47
2022-12-23T09:17:08.825Z,21.63
2022-12-23T09:22:10.501Z,21.47
2022-12-23T09:24:41.093Z,22.40
2022-12-23T09:27:11.954Z,21.10
2022-12-23T09:29:44.595Z,21.23
2022-12-23T09:32:17.837Z,21.63
2022-12-23T09:34:47.679Z,20.77
2022-12-23T09:37:18.185Z,19.77
2022-12-23T09:39:48.692Z,19.63
2022-12-23T09:42:28.661Z,19.80
2022-12-23T09:45:16.918Z,20.93
2022-12-23T09:48:00.944Z,21.13
2022-12-23T09:50:39.047Z,19.93
2022-12-23T09:53:15.901Z,20.30
2022-12-23T09:55:56.924Z,21.03
2022-12-23T09:58:40.685Z,21.23
2022-12-23T10:01:24.904Z,20.47
2022-12-23T10:04:33.728Z,20.63
2022-12-23T10:07:25.565Z,20.17
2022-12-23T10:09:58.706Z,19.23
2022-12-23T10:12:40.155Z,21.10
2022-12-23T10:15:32.225Z,22.47
2022-12-23T10:18:07.177Z,20.17
2022-12-23T10:20:47.427Z,22.07
2022-12-23T10:23:22.601Z,19.17
2022-12-23T10:25:56.220Z,21.23
2022-12-23T10:28:29.851Z,21.77
2022-12-23T10:31:30.874Z,22.00
2022-12-23T10:34:13.224Z,21.07
2022-12-23T10:36:52.552Z,21.73
2022-12-23T10:39:36.352Z,22.30
2022-12-23T10:42:20.377Z,22.27
2022-12-23T10:45:11.187Z,24.43
2022-12-23T10:47:51.833Z,23.17
2022-12-23T10:50:45.818Z,23.63
2022-12-23T10:53:26.777Z,22.40
2022-12-23T10:56:03.913Z,21.57
2022-12-23T10:58:45.347Z,21.63
2022-12-23T11:01:26.153Z,20.70
2022-12-23T11:04:08.461Z,21.40
2022-12-23T11:06:41.931Z,21.60
2022-12-23T11:09:17.909Z,20.65
2022-12-23T11:12:05.153Z,19.97
2022-12-23T11:14:37.596Z,22.10
2022-12-23T11:17:21.669Z,23.50
2022-12-23T11:20:12.133Z,24.40
2022-12-23T11:22:49.604Z,24.30
2022-12-23T11:25:40.655Z,23.37
2022-12-23T11:28:21.906Z,24.20
2022-12-23T11:30:56.976Z,26.70
2022-12-23T11:36:28.750Z,23.40
2022-12-23T11:39:07.986Z,24.60
2022-12-23T11:41:47.790Z,24.17
2022-12-23T11:44:27.720Z,23.80
2022-12-23T11:47:20.017Z,23.50
2022-12-23T11:49:53.285Z,23.67
2022-12-23T11:52:24.143Z,23.60
2022-12-23T11:55:02.957Z,25.13
2022-12-23T11:57:39.945Z,24.80
2022-12-23T12:00:22.751Z,24.03
2022-12-23T12:02:56.080Z,23.43
2022-12-23T12:05:34.493Z,24.03
2022-12-23T12:08:13.622Z,25.23
2022-12-23T12:10:48.635Z,24.37
2022-12-23T12:13:29.243Z,25.13
2022-12-23T12:16:28.059Z,24.57
2022-12-23T12:19:04.668Z,24.80
2022-12-23T12:21:42.380Z,25.33
2022-12-23T12:24:44.028Z,24.90
2022-12-23T12:27:19.827Z,25.77
2022-12-23T12:29:57.518Z,26.20
2022-12-23T12:32:48.933Z,25.77
2022-12-23T12:35:32.822Z,25.82
2022-12-23T12:38:18.411Z,25.80
2022-12-23T12:41:18.961Z,25.47
2022-12-23T13:55:15.061Z,23.40
2022-12-23T13:57:59.221Z,22.47
2022-12-23T14:00:36.629Z,21.63
2022-12-23T14:03:26.112Z,22.33
2022-12-23T14:06:34.945Z,22.53
2022-12-23T14:09:06.992Z,20.33
2022-12-23T14:11:45.444Z,20.33
2022-12-23T14:14:24.006Z,20.50
2022-12-23T14:17:05.260Z,21.37
2022-12-23T14:19:55.251Z,20.40
2022-12-23T14:22:44.636Z,20.03
2022-12-23T14:25:57.972Z,21.00
2022-12-23T14:28:45.174Z,21.33
2022-12-23T14:31:47.417Z,21.03
2022-12-23T14:34:29.184Z,21.80
2022-12-23T14:37:38.739Z,20.47
2022-12-23T14:40:47.534Z,21.07
2022-12-23T14:43:42.576Z,20.73
2022-12-23T14:46:45.344Z,21.05
2022-12-23T14:49:42.342Z,20.70
2022-12-23T14:52:59.591Z,21.27
2022-12-23T14:55:53.998Z,21.17
2022-12-23T14:58:41.041Z,21.67
2022-12-23T15:01:19.281Z,21.20
2022-12-23T15:10:06.430Z,20.70
2022-12-23T15:13:21.737Z,19.87
2022-12-23T15:16:01.975Z,20.67
2022-12-23T15:19:21.000Z,20.23
2022-12-23T15:22:23.867Z,20.27
2022-12-23T15:25:23.733Z,19.33
2022-12-23T15:28:01.572Z,19.50
2022-12-23T15:30:52.599Z,19.33
2022-12-23T15:36:35.853Z,19.10
2022-12-23T15:39:25.835Z,18.43
2022-12-23T15:42:17.671Z,17.40
2022-12-23T15:44:58.716Z,17.25
2022-12-23T15:47:45.671Z,18.53
2022-12-23T15:50:21.250Z,18.00
2022-12-23T15:53:01.982Z,16.97
2022-12-23T15:55:40.322Z,16.93
2022-12-23T15:58:21.081Z,16.57
2022-12-23T16:00:59.160Z,16.07
2022-12-23T16:03:37.885Z,16.80
2022-12-23T16:06:21.439Z,16.40
2022-12-23T16:09:01.553Z,15.80
2022-12-23T16:11:55.823Z,17.30
2022-12-23T16:14:37.637Z,16.40
2022-12-23T16:17:24.580Z,17.50
2022-12-23T16:20:29.118Z,17.63
2022-12-23T16:23:25.042Z,16.10
2022-12-23T16:26:25.043Z,17.13
2022-12-23T16:29:05.623Z,16.70
2022-12-23T16:32:01.460Z,18.13
2022-12-23T16:38:27.365Z,18.20
2022-12-23T16:41:23.591Z,18.63
2022-12-23T17:09:10.323Z,21.27
2022-12-23T17:11:53.195Z,21.27
2022-12-23T17:14:24.669Z,20.90
2022-12-23T17:16:54.695Z,19.33
2022-12-23T17:19:28.964Z,20.00
2022-12-23T17:22:04.530Z,20.17
2022-12-23T17:24:36.712Z,20.93
2022-12-23T17:27:20.345Z,20.70
2022-12-23T17:29:52.441Z,22.93
2022-12-23T17:32:23.611Z,20.47
2022-12-23T17:34:55.457Z,21.60
2022-12-23T17:37:25.472Z,21.23
2022-12-23T17:39:55.891Z,22.73
2022-12-23T17:42:26.293Z,22.13
2022-12-23T17:44:56.525Z,22.17
2022-12-23T17:47:32.832Z,41.10
2022-12-23T17:50:02.109Z,23.73
2022-12-23T17:52:36.848Z,22.10
2022-12-23T17:55:21.156Z,23.73
2022-12-23T17:57:52.003Z,24.85
2022-12-23T18:00:32.079Z,31.90
2022-12-23T18:03:07.058Z,28.20
2022-12-23T18:05:39.557Z,34.20
2022-12-23T18:08:09.900Z,28.47
2022-12-23T18:10:41.079Z,25.23
2022-12-23T18:13:17.375Z,26.20
2022-12-23T18:15:52.761Z,25.60
2022-12-23T18:18:31.216Z,24.87
2022-12-23T18:21:08.666Z,23.70
2022-12-23T18:23:40.274Z,23.17
2022-12-23T18:26:14.563Z,22.70
2022-12-23T18:28:51.037Z,22.93
2022-12-23T18:31:23.503Z,23.43
2022-12-23T18:33:53.493Z,23.67
2022-12-23T18:36:37.214Z,22.70
2022-12-23T18:39:06.782Z,22.90
2022-12-23T18:41:43.043Z,19.33
2022-12-23T18:44:18.436Z,19.10
2022-12-23T18:46:49.033Z,19.17
2022-12-23T18:49:24.047Z,20.37
2022-12-23T18:51:56.074Z,19.27
2022-12-23T18:54:29.563Z,19.13
2022-12-23T18:57:01.529Z,20.80
2022-12-23T18:59:38.528Z,21.30
2022-12-23T19:02:13.664Z,20.90
2022-12-23T19:04:46.757Z,21.37
2022-12-23T19:07:16.687Z,19.13
2022-12-23T19:09:46.416Z,19.90
2022-12-23T19:12:18.769Z,19.43
2022-12-23T19:14:48.448Z,18.80
2022-12-23T19:17:17.903Z,18.87
2022-12-23T19:19:48.499Z,20.60
2022-12-23T19:22:19.770Z,21.70
2022-12-23T19:25:05.401Z,23.07
2022-12-23T19:27:36.065Z,22.87
2022-12-23T19:30:08.934Z,22.33
2022-12-23T19:32:43.776Z,21.53
2022-12-23T19:35:17.023Z,22.50
2022-12-23T19:37:49.715Z,22.77
2022-12-23T19:40:23.136Z,24.33
2022-12-23T19:42:52.957Z,22.62
2022-12-23T19:45:23.297Z,22.93
2022-12-23T19:47:56.519Z,24.50
2022-12-23T19:50:28.645Z,22.93
2022-12-23T19:53:06.158Z,22.77
2022-12-23T19:55:38.957Z,23.53
2022-12-23T19:58:26.099Z,24.80
2022-12-23T20:01:09.742Z,24.00
2022-12-23T20:03:41.485Z,22.73
2022-12-23T20:06:16.796Z,24.80
2022-12-23T20:09:07.532Z,28.60
2022-12-23T20:11:48.079Z,65.30
2022-12-23T20:14:21.785Z,47.47
2022-12-23T20:16:51.565Z,33.55
2022-12-23T20:19:22.269Z,33.43
2022-12-23T20:21:52.212Z,35.83
2022-12-23T20:24:22.024Z,32.03
2022-12-23T20:26:54.523Z,30.23
2022-12-23T20:29:25.990Z,28.90
2022-12-23T20:31:55.815Z,27.43
2022-12-23T20:34:33.283Z,28.53
2022-12-23T20:37:08.100Z,24.03
2022-12-23T20:39:53.396Z,26.17
2022-12-23T20:42:22.970Z,27.03
2022-12-23T20:44:53.138Z,25.10
2022-12-23T20:47:23.931Z,23.97
2022-12-23T20:49:53.464Z,23.57
2022-12-23T20:52:23.434Z,22.33
2022-12-23T20:54:52.939Z,22.10
2022-12-23T20:57:25.128Z,22.57
2022-12-23T20:59:58.226Z,24.70
2022-12-23T21:02:33.160Z,25.90
2022-12-23T21:05:05.489Z,27.10
2022-12-23T21:07:35.256Z,26.00
2022-12-23T21:10:05.876Z,28.50
2022-12-23T21:12:35.735Z,30.23
2022-12-23T21:15:07.402Z,30.40
2022-12-23T21:17:38.542Z,30.23
2022-12-23T21:20:10.698Z,29.70
2022-12-23T21:22:44.391Z,29.92
2022-12-23T21:25:17.225Z,29.10
2022-12-23T21:27:48.571Z,27.17
2022-12-23T21:30:20.410Z,28.03
2022-12-23T21:32:50.077Z,28.30
2022-12-23T21:35:23.920Z,28.50
2022-12-23T21:37:53.177Z,28.15
2022-12-23T21:40:26.475Z,28.57
2022-12-23T21:43:08.538Z,29.37
2022-12-23T21:45:40.843Z,29.60
2022-12-23T21:48:11.646Z,28.30
2022-12-23T21:50:41.466Z,28.13
2022-12-23T21:53:10.680Z,29.00
2022-12-23T21:55:40.086Z,27.57
2022-12-23T21:58:15.073Z,27.97
2022-12-23T22:00:55.091Z,27.23
2022-12-23T22:03:26.189Z,25.70
2022-12-23T22:06:10.910Z,27.00
2022-12-23T22:08:47.759Z,26.53
2022-12-23T22:11:21.414Z,27.40
2022-12-23T22:13:51.176Z,27.83
2022-12-23T22:16:25.612Z,27.80
2022-12-23T22:19:01.219Z,27.73
2022-12-23T22:24:13.121Z,24.57
2022-12-23T22:26:52.082Z,25.53
2022-12-23T22:29:22.922Z,24.87
2022-12-23T22:31:52.952Z,28.23
2022-12-23T22:34:23.387Z,27.40
2022-12-23T22:36:52.803Z,26.50
2022-12-23T22:39:22.628Z,25.23
2022-12-23T22:41:52.725Z,27.43
2022-12-23T22:44:22.866Z,28.80
2022-12-23T22:46:55.641Z,26.17
2022-12-23T22:49:34.244Z,25.87
2022-12-23T22:52:03.926Z,27.40
2022-12-23T22:54:34.469Z,26.17
2022-12-23T22:57:05.273Z,26.77
2022-12-23T22:59:35.815Z,26.23
2022-12-23T23:02:05.793Z,27.50
2022-12-23T23:04:42.017Z,28.47
2022-12-23T23:07:11.309Z,28.33
2022-12-23T23:09:40.877Z,28.70
2022-12-23T23:12:09.898Z,25.87
2022-12-23T23:14:52.207Z,26.47
2022-12-23T23:17:27.122Z,24.70
2022-12-23T23:19:56.444Z,26.73
2022-12-23T23:22:25.724Z,27.83
2022-12-23T23:24:57.934Z,26.63
2022-12-23T23:27:27.627Z,24.67
2022-12-23T23:29:56.929Z,26.93
2022-12-23T23:32:28.469Z,28.20
2022-12-23T23:34:57.531Z,26.67
2022-12-23T23:37:30.051Z,27.67
2022-12-23T23:40:00.263Z,26.65
2022-12-23T23:42:36.019Z,28.53
2022-12-23T23:45:10.163Z,26.40
2022-12-23T23:47:39.423Z,29.37
2022-12-23T23:50:11.115Z,26.00
2022-12-23T23:52:41.525Z,28.17
2022-12-23T23:55:11.727Z,27.97
2022-12-23T23:57:40.961Z,28.63
